sensor_id;sensor_type;location;lat;lon;timestamp;pressure;altitude;pressure_sealevel;temperature;humidity
59272;BME280;45043;51.068;7.026;2023-06-14T00:02:28;100135.56;;;20.03;27.84
59272;BME280;45043;51.068;7.026;2023-06-14T00:05:28;100138.53;;;19.97;27.92
59272;BME280;45043;51.068;7.026;2023-06-14T00:08:30;100140.69;;;20.00;28.12
59272;BME280;45043;51.068;7.026;2023-06-14T00:11:31;100140.13;;;19.98;28.08
59272;BME280;45043;51.068;7.026;2023-06-14T00:14:31;100139.84;;;19.94;28.13
59272;BME280;45043;51.068;7.026;2023-06-14T00:17:31;100147.16;;;19.89;27.77
59272;BME280;45043;51.068;7.026;2023-06-14T00:20:33;100144.16;;;19.85;28.35
59272;BME280;45043;51.068;7.026;2023-06-14T00:23:33;100155.75;;;19.85;27.87
59272;BME280;45043;51.068;7.026;2023-06-14T00:26:34;100148.19;;;19.77;28.34
59272;BME280;45043;51.068;7.026;2023-06-14T00:29:34;100158.41;;;19.80;28.60
59272;BME280;45043;51.068;7.026;2023-06-14T00:32:38;100166.78;;;19.79;28.24
59272;BME280;45043;51.068;7.026;2023-06-14T00:35:38;100157.34;;;19.76;28.54
59272;BME280;45043;51.068;7.026;2023-06-14T00:38:38;100165.69;;;19.75;28.26
59272;BME280;45043;51.068;7.026;2023-06-14T00:41:39;100172.94;;;19.69;28.21
59272;BME280;45043;51.068;7.026;2023-06-14T00:44:40;100172.38;;;19.62;28.14
59272;BME280;45043;51.068;7.026;2023-06-14T00:47:41;100173.97;;;19.58;28.50
59272;BME280;45043;51.068;7.026;2023-06-14T00:50:44;100181.53;;;19.61;28.69
59272;BME280;45043;51.068;7.026;2023-06-14T00:53:50;100174.53;;;19.60;28.48
59272;BME280;45043;51.068;7.026;2023-06-14T00:56:51;100178.03;;;19.55;27.85
59272;BME280;45043;51.068;7.026;2023-06-14T00:59:52;100177.19;;;19.50;28.21
59272;BME280;45043;51.068;7.026;2023-06-14T01:02:52;100179.88;;;19.45;28.45
59272;BME280;45043;51.068;7.026;2023-06-14T01:06:02;100177.97;;;19.45;28.35
59272;BME280;45043;51.068;7.026;2023-06-14T01:12:44;100179.50;;;19.31;28.14
59272;BME280;45043;51.068;7.026;2023-06-14T01:15:47;100181.09;;;19.27;28.56
59272;BME280;45043;51.068;7.026;2023-06-14T01:18:48;100182.13;;;19.21;28.05
59272;BME280;45043;51.068;7.026;2023-06-14T01:21:49;100180.75;;;19.13;28.33
59272;BME280;45043;51.068;7.026;2023-06-14T01:24:51;100178.03;;;19.08;28.98
59272;BME280;45043;51.068;7.026;2023-06-14T01:28:00;100175.28;;;19.03;28.49
59272;BME280;45043;51.068;7.026;2023-06-14T01:31:03;100178.47;;;18.95;28.63
59272;BME280;45043;51.068;7.026;2023-06-14T01:34:04;100177.38;;;18.90;29.22
59272;BME280;45043;51.068;7.026;2023-06-14T01:37:05;100180.59;;;18.87;29.07
59272;BME280;45043;51.068;7.026;2023-06-14T01:40:07;100174.38;;;18.82;29.29
59272;BME280;45043;51.068;7.026;2023-06-14T01:43:10;100180.84;;;18.81;28.84
59272;BME280;45043;51.068;7.026;2023-06-14T01:46:13;100179.44;;;18.73;28.57
59272;BME280;45043;51.068;7.026;2023-06-14T01:49:15;100187.19;;;18.70;28.82
59272;BME280;45043;51.068;7.026;2023-06-14T01:52:15;100178.25;;;18.64;28.87
59272;BME280;45043;51.068;7.026;2023-06-14T01:55:17;100189.31;;;18.67;29.35
59272;BME280;45043;51.068;7.026;2023-06-14T01:58:18;100188.19;;;18.63;29.07
59272;BME280;45043;51.068;7.026;2023-06-14T02:01:19;100182.50;;;18.60;28.99
59272;BME280;45043;51.068;7.026;2023-06-14T02:04:21;100183.03;;;18.57;29.15
59272;BME280;45043;51.068;7.026;2023-06-14T02:07:21;100183.22;;;18.50;29.07
59272;BME280;45043;51.068;7.026;2023-06-14T02:10:22;100178.13;;;18.49;29.38
59272;BME280;45043;51.068;7.026;2023-06-14T02:13:22;100178.13;;;18.49;29.42
59272;BME280;45043;51.068;7.026;2023-06-14T02:16:24;100181.63;;;18.49;29.59
59272;BME280;45043;51.068;7.026;2023-06-14T02:19:28;100187.00;;;18.49;29.15
59272;BME280;45043;51.068;7.026;2023-06-14T02:22:29;100186.44;;;18.47;29.23
59272;BME280;45043;51.068;7.026;2023-06-14T02:25:29;100188.31;;;18.47;29.08
59272;BME280;45043;51.068;7.026;2023-06-14T02:28:29;100187.50;;;18.46;28.75
59272;BME280;45043;51.068;7.026;2023-06-14T02:31:30;100188.00;;;18.43;28.94
59272;BME280;45043;51.068;7.026;2023-06-14T02:34:30;100179.63;;;18.39;29.05
59272;BME280;45043;51.068;7.026;2023-06-14T02:37:31;100194.22;;;18.43;29.11
59272;BME280;45043;51.068;7.026;2023-06-14T02:40:31;100187.72;;;18.39;28.88
59272;BME280;45043;51.068;7.026;2023-06-14T02:43:32;100195.22;;;18.37;28.96
59272;BME280;45043;51.068;7.026;2023-06-14T02:46:32;100187.09;;;18.32;28.86
59272;BME280;45043;51.068;7.026;2023-06-14T02:49:33;100198.91;;;18.26;28.76
59272;BME280;45043;51.068;7.026;2023-06-14T02:52:34;100199.69;;;18.27;28.64
59272;BME280;45043;51.068;7.026;2023-06-14T02:55:34;100210.16;;;18.23;29.17
59272;BME280;45043;51.068;7.026;2023-06-14T02:58:40;100198.91;;;17.99;29.00
59272;BME280;45043;51.068;7.026;2023-06-14T03:01:41;100203.38;;;17.93;29.58
59272;BME280;45043;51.068;7.026;2023-06-14T03:04:44;100215.84;;;18.00;29.45
59272;BME280;45043;51.068;7.026;2023-06-14T03:07:50;100218.06;;;18.08;30.04
59272;BME280;45043;51.068;7.026;2023-06-14T03:13:53;100227.81;;;18.14;29.81
59272;BME280;45043;51.068;7.026;2023-06-14T03:16:53;100221.50;;;18.03;29.46
59272;BME280;45043;51.068;7.026;2023-06-14T03:23:00;100229.25;;;18.22;29.87
59272;BME280;45043;51.068;7.026;2023-06-14T03:26:01;100241.09;;;18.26;29.81
59272;BME280;45043;51.068;7.026;2023-06-14T03:29:02;100240.31;;;18.25;29.38
59272;BME280;45043;51.068;7.026;2023-06-14T03:32:03;100234.41;;;18.28;29.25
59272;BME280;45043;51.068;7.026;2023-06-14T03:35:15;100238.91;;;18.23;29.67
59272;BME280;45043;51.068;7.026;2023-06-14T03:38:20;100242.16;;;18.25;29.10
59272;BME280;45043;51.068;7.026;2023-06-14T03:41:21;100243.56;;;18.32;29.25
59272;BME280;45043;51.068;7.026;2023-06-14T03:44:26;100240.38;;;18.35;29.62
59272;BME280;45043;51.068;7.026;2023-06-14T03:47:27;100247.41;;;18.36;29.08
59272;BME280;45043;51.068;7.026;2023-06-14T03:50:28;100247.09;;;18.33;29.05
59272;BME280;45043;51.068;7.026;2023-06-14T03:53:29;100249.53;;;18.34;29.19
59272;BME280;45043;51.068;7.026;2023-06-14T03:56:30;100255.41;;;18.31;29.48
59272;BME280;45043;51.068;7.026;2023-06-14T03:59:31;100253.78;;;18.30;29.53
59272;BME280;45043;51.068;7.026;2023-06-14T04:02:32;100252.16;;;18.29;29.32
59272;BME280;45043;51.068;7.026;2023-06-14T04:05:33;100255.47;;;18.36;28.73
59272;BME280;45043;51.068;7.026;2023-06-14T04:08:34;100264.59;;;18.35;29.29
59272;BME280;45043;51.068;7.026;2023-06-14T04:11:35;100267.53;;;18.34;29.39
59272;BME280;45043;51.068;7.026;2023-06-14T04:14:37;100266.28;;;18.41;29.93
59272;BME280;45043;51.068;7.026;2023-06-14T04:17:38;100275.50;;;18.51;29.89
59272;BME280;45043;51.068;7.026;2023-06-14T04:20:39;100273.19;;;18.59;29.14
59272;BME280;45043;51.068;7.026;2023-06-14T04:23:40;100285.22;;;18.52;28.34
59272;BME280;45043;51.068;7.026;2023-06-14T04:26:45;100284.75;;;18.33;29.05
59272;BME280;45043;51.068;7.026;2023-06-14T04:29:49;100295.19;;;18.29;28.69
59272;BME280;45043;51.068;7.026;2023-06-14T04:32:49;100297.75;;;18.19;29.46
59272;BME280;45043;51.068;7.026;2023-06-14T04:35:54;100300.75;;;18.23;30.41
59272;BME280;45043;51.068;7.026;2023-06-14T04:38:55;100291.25;;;18.37;30.00
59272;BME280;45043;51.068;7.026;2023-06-14T04:41:59;100297.84;;;18.51;30.55
59272;BME280;45043;51.068;7.026;2023-06-14T04:45:01;100300.72;;;18.66;30.67
59272;BME280;45043;51.068;7.026;2023-06-14T04:48:03;100311.31;;;18.78;30.32
59272;BME280;45043;51.068;7.026;2023-06-14T04:51:05;100323.50;;;18.86;30.42
59272;BME280;45043;51.068;7.026;2023-06-14T04:54:06;100320.63;;;18.98;30.71
59272;BME280;45043;51.068;7.026;2023-06-14T04:57:10;100322.34;;;19.09;30.43
59272;BME280;45043;51.068;7.026;2023-06-14T05:00:15;100321.34;;;19.20;29.85
59272;BME280;45043;51.068;7.026;2023-06-14T05:03:16;100314.44;;;19.29;30.29
59272;BME280;45043;51.068;7.026;2023-06-14T05:06:18;100329.03;;;19.38;29.52
59272;BME280;45043;51.068;7.026;2023-06-14T05:09:19;100323.47;;;19.45;29.68
59272;BME280;45043;51.068;7.026;2023-06-14T05:12:20;100322.66;;;19.45;29.79
59272;BME280;45043;51.068;7.026;2023-06-14T05:15:20;100331.63;;;19.60;29.52
59272;BME280;45043;51.068;7.026;2023-06-14T05:18:25;100334.13;;;19.72;29.26
59272;BME280;45043;51.068;7.026;2023-06-14T05:21:26;100331.47;;;19.77;28.99
59272;BME280;45043;51.068;7.026;2023-06-14T05:24:26;100327.72;;;19.83;28.93
59272;BME280;45043;51.068;7.026;2023-06-14T05:27:27;100331.78;;;19.86;29.06
59272;BME280;45043;51.068;7.026;2023-06-14T05:30:27;100322.94;;;19.96;29.63
59272;BME280;45043;51.068;7.026;2023-06-14T05:33:29;100334.28;;;20.03;29.35
59272;BME280;45043;51.068;7.026;2023-06-14T05:36:30;100324.63;;;20.07;29.16
59272;BME280;45043;51.068;7.026;2023-06-14T05:39:30;100330.84;;;20.18;29.25
59272;BME280;45043;51.068;7.026;2023-06-14T05:42:32;100329.56;;;20.25;28.85
59272;BME280;45043;51.068;7.026;2023-06-14T05:45:32;100328.19;;;20.23;28.90
59272;BME280;45043;51.068;7.026;2023-06-14T05:48:33;100327.34;;;20.12;28.71
59272;BME280;45043;51.068;7.026;2023-06-14T05:51:33;100340.06;;;20.22;28.34
59272;BME280;45043;51.068;7.026;2023-06-14T05:54:33;100339.56;;;20.30;28.81
59272;BME280;45043;51.068;7.026;2023-06-14T05:57:34;100350.63;;;20.39;28.73
59272;BME280;45043;51.068;7.026;2023-06-14T06:00:36;100347.69;;;20.40;28.40
59272;BME280;45043;51.068;7.026;2023-06-14T06:03:37;100351.16;;;20.30;28.38
59272;BME280;45043;51.068;7.026;2023-06-14T06:06:37;100337.84;;;20.14;28.29
59272;BME280;45043;51.068;7.026;2023-06-14T06:09:38;100351.66;;;20.22;28.14
59272;BME280;45043;51.068;7.026;2023-06-14T06:12:38;100353.06;;;20.35;28.41
59272;BME280;45043;51.068;7.026;2023-06-14T06:15:38;100341.75;;;20.38;27.98
59272;BME280;45043;51.068;7.026;2023-06-14T06:18:39;100351.44;;;20.34;28.19
59272;BME280;45043;51.068;7.026;2023-06-14T06:21:39;100354.63;;;20.21;27.90
59272;BME280;45043;51.068;7.026;2023-06-14T06:24:40;100354.81;;;20.09;28.44
59272;BME280;45043;51.068;7.026;2023-06-14T06:27:40;100354.31;;;20.12;28.69
59272;BME280;45043;51.068;7.026;2023-06-14T06:30:40;100360.81;;;20.16;28.44
59272;BME280;45043;51.068;7.026;2023-06-14T06:33:41;100358.16;;;20.26;27.93
59272;BME280;45043;51.068;7.026;2023-06-14T06:36:41;100361.44;;;20.44;28.35
59272;BME280;45043;51.068;7.026;2023-06-14T06:39:42;100353.91;;;20.41;27.77
59272;BME280;45043;51.068;7.026;2023-06-14T06:42:43;100364.13;;;20.39;27.89
59272;BME280;45043;51.068;7.026;2023-06-14T06:45:46;100367.38;;;20.41;27.60
59272;BME280;45043;51.068;7.026;2023-06-14T06:48:47;100371.41;;;20.43;27.47
59272;BME280;45043;51.068;7.026;2023-06-14T06:52:04;100373.03;;;20.39;27.48
59272;BME280;45043;51.068;7.026;2023-06-14T06:55:05;100386.81;;;20.43;27.11
59272;BME280;45043;51.068;7.026;2023-06-14T06:58:08;100384.38;;;20.41;27.00
59272;BME280;45043;51.068;7.026;2023-06-14T07:01:08;100390.00;;;20.34;27.27
59272;BME280;45043;51.068;7.026;2023-06-14T07:04:09;100391.91;;;20.34;26.84
59272;BME280;45043;51.068;7.026;2023-06-14T07:07:10;100393.25;;;20.31;27.22
59272;BME280;45043;51.068;7.026;2023-06-14T07:10:10;100400.81;;;20.34;27.66
59272;BME280;45043;51.068;7.026;2023-06-14T07:13:11;100396.59;;;20.59;27.27
59272;BME280;45043;51.068;7.026;2023-06-14T07:16:12;100397.22;;;20.87;27.23
59272;BME280;45043;51.068;7.026;2023-06-14T07:19:12;100399.41;;;21.05;27.25
59272;BME280;45043;51.068;7.026;2023-06-14T07:22:12;100394.28;;;21.19;26.58
59272;BME280;45043;51.068;7.026;2023-06-14T07:25:13;100402.41;;;21.24;26.22
59272;BME280;45043;51.068;7.026;2023-06-14T07:28:14;100386.47;;;21.22;25.48
59272;BME280;45043;51.068;7.026;2023-06-14T07:31:15;100393.47;;;21.13;25.30
59272;BME280;45043;51.068;7.026;2023-06-14T07:34:16;100394.84;;;21.16;25.34
59272;BME280;45043;51.068;7.026;2023-06-14T07:37:16;100387.53;;;21.16;25.97
59272;BME280;45043;51.068;7.026;2023-06-14T07:40:17;100394.56;;;21.27;25.23
59272;BME280;45043;51.068;7.026;2023-06-14T07:43:17;100388.06;;;21.28;24.68
59272;BME280;45043;51.068;7.026;2023-06-14T07:46:18;100402.94;;;21.21;24.32
59272;BME280;45043;51.068;7.026;2023-06-14T07:49:18;100394.56;;;21.12;23.53
59272;BME280;45043;51.068;7.026;2023-06-14T07:52:18;100392.66;;;20.97;24.15
59272;BME280;45043;51.068;7.026;2023-06-14T07:55:19;100392.66;;;20.92;24.56
59272;BME280;45043;51.068;7.026;2023-06-14T07:58:19;100407.78;;;21.03;24.78
59272;BME280;45043;51.068;7.026;2023-06-14T08:01:20;100406.16;;;21.02;24.93
59272;BME280;45043;51.068;7.026;2023-06-14T08:04:20;100397.78;;;21.04;24.15
59272;BME280;45043;51.068;7.026;2023-06-14T08:07:20;100402.38;;;21.14;23.78
59272;BME280;45043;51.068;7.026;2023-06-14T08:10:22;100389.69;;;21.09;23.42
59272;BME280;45043;51.068;7.026;2023-06-14T08:13:22;100390.19;;;20.91;23.19
59272;BME280;45043;51.068;7.026;2023-06-14T08:16:23;100396.94;;;20.83;24.52
59272;BME280;45043;51.068;7.026;2023-06-14T08:19:23;100391.56;;;20.93;24.52
59272;BME280;45043;51.068;7.026;2023-06-14T08:22:24;100391.56;;;20.93;23.72
59272;BME280;45043;51.068;7.026;2023-06-14T08:25:28;100397.25;;;20.97;23.21
59272;BME280;45043;51.068;7.026;2023-06-14T08:28:29;100385.34;;;20.93;24.01
59272;BME280;45043;51.068;7.026;2023-06-14T08:31:29;100396.72;;;21.05;24.68
59272;BME280;45043;51.068;7.026;2023-06-14T08:34:32;100398.34;;;21.11;24.26
59272;BME280;45043;51.068;7.026;2023-06-14T08:37:32;100397.53;;;21.11;24.26
59272;BME280;45043;51.068;7.026;2023-06-14T08:40:37;100390.22;;;21.16;23.86
59272;BME280;45043;51.068;7.026;2023-06-14T08:43:37;100393.47;;;21.13;23.98
59272;BME280;45043;51.068;7.026;2023-06-14T08:46:38;100394.03;;;21.15;25.08
59272;BME280;45043;51.068;7.026;2023-06-14T08:49:40;100388.63;;;21.25;24.96
59272;BME280;45043;51.068;7.026;2023-06-14T08:52:45;100388.63;;;21.25;24.55
59272;BME280;45043;51.068;7.026;2023-06-14T08:55:50;100399.16;;;21.27;25.08
59272;BME280;45043;51.068;7.026;2023-06-14T08:58:51;100388.59;;;21.36;24.79
59272;BME280;45043;51.068;7.026;2023-06-14T09:01:51;100390.75;;;21.44;24.68
59272;BME280;45043;51.068;7.026;2023-06-14T09:04:52;100379.44;;;21.42;23.86
59272;BME280;45043;51.068;7.026;2023-06-14T09:07:54;100382.41;;;21.35;24.14
59272;BME280;45043;51.068;7.026;2023-06-14T09:10:57;100389.72;;;21.29;25.00
59272;BME280;45043;51.068;7.026;2023-06-14T09:13:57;100392.41;;;21.35;24.85
59272;BME280;45043;51.068;7.026;2023-06-14T09:16:57;100383.75;;;21.43;24.55
59272;BME280;45043;51.068;7.026;2023-06-14T09:20:02;100372.13;;;21.42;24.96
59272;BME280;45043;51.068;7.026;2023-06-14T09:23:06;100378.59;;;21.36;24.78
59272;BME280;45043;51.068;7.026;2023-06-14T09:26:09;100395.66;;;21.37;25.10
59272;BME280;45043;51.068;7.026;2023-06-14T09:29:10;100385.94;;;21.41;24.88
59272;BME280;45043;51.068;7.026;2023-06-14T09:32:10;100383.75;;;21.43;25.16
59272;BME280;45043;51.068;7.026;2023-06-14T09:35:11;100388.34;;;21.42;25.00
59272;BME280;45043;51.068;7.026;2023-06-14T09:38:11;100385.94;;;21.41;25.06
59272;BME280;45043;51.068;7.026;2023-06-14T09:41:11;100401.56;;;21.44;25.19
59272;BME280;45043;51.068;7.026;2023-06-14T09:44:12;100387.25;;;21.28;25.72
59272;BME280;45043;51.068;7.026;2023-06-14T09:47:16;100397.81;;;21.29;24.89
59272;BME280;45043;51.068;7.026;2023-06-14T09:50:17;100397.56;;;21.46;25.41
59272;BME280;45043;51.068;7.026;2023-06-14T09:53:21;100391.88;;;21.58;25.02
59272;BME280;45043;51.068;7.026;2023-06-14T09:56:30;100384.03;;;21.67;25.98
59272;BME280;45043;51.068;7.026;2023-06-14T09:59:31;100383.78;;;21.53;25.86
59272;BME280;45043;51.068;7.026;2023-06-14T10:02:35;100396.19;;;21.28;26.61
59272;BME280;45043;51.068;7.026;2023-06-14T10:05:40;100390.50;;;21.25;26.89
59272;BME280;45043;51.068;7.026;2023-06-14T10:08:42;100408.06;;;21.27;26.97
59272;BME280;45043;51.068;7.026;2023-06-14T10:11:43;100401.88;;;21.37;27.03
59272;BME280;45043;51.068;7.026;2023-06-14T10:14:49;100403.22;;;21.45;26.97
59272;BME280;45043;51.068;7.026;2023-06-14T10:17:56;100398.66;;;21.56;27.19
59272;BME280;45043;51.068;7.026;2023-06-14T10:21:21;100398.91;;;21.54;27.01
59272;BME280;45043;51.068;7.026;2023-06-14T10:24:43;100396.47;;;21.63;27.04
59272;BME280;45043;51.068;7.026;2023-06-14T10:27:44;100395.13;;;21.70;27.41
59272;BME280;45043;51.068;7.026;2023-06-14T10:31:05;100391.84;;;21.73;26.84
59272;BME280;45043;51.068;7.026;2023-06-14T10:34:06;100384.81;;;21.83;26.56
59272;BME280;45043;51.068;7.026;2023-06-14T10:37:12;100385.06;;;21.86;26.18
59272;BME280;45043;51.068;7.026;2023-06-14T10:40:30;100394.53;;;21.84;26.64
59272;BME280;45043;51.068;7.026;2023-06-14T10:43:31;100386.44;;;21.89;26.65
59272;BME280;45043;51.068;7.026;2023-06-14T10:46:31;100392.38;;;21.86;26.93
59272;BME280;45043;51.068;7.026;2023-06-14T10:49:45;100402.66;;;21.89;26.47
59272;BME280;45043;51.068;7.026;2023-06-14T10:52:48;100389.38;;;21.97;26.25
59272;BME280;45043;51.068;7.026;2023-06-14T10:55:49;100394.78;;;21.97;26.38
59272;BME280;45043;51.068;7.026;2023-06-14T10:58:49;100399.94;;;21.94;26.23
59272;BME280;45043;51.068;7.026;2023-06-14T11:05:15;100392.91;;;21.93;24.81
59272;BME280;45043;51.068;7.026;2023-06-14T11:08:35;100395.34;;;21.84;25.41
59272;BME280;45043;51.068;7.026;2023-06-14T11:11:42;100402.69;;;21.53;25.92
59272;BME280;45043;51.068;7.026;2023-06-14T11:14:46;100393.22;;;21.40;25.93
59272;BME280;45043;51.068;7.026;2023-06-14T11:17:50;100396.44;;;21.32;25.84
59272;BME280;45043;51.068;7.026;2023-06-14T11:20:53;100396.72;;;21.36;26.01
59272;BME280;45043;51.068;7.026;2023-06-14T11:23:54;100390.25;;;21.47;26.19
59272;BME280;45043;51.068;7.026;2023-06-14T11:26:56;100387.25;;;21.59;25.40
59272;BME280;45043;51.068;7.026;2023-06-14T11:29:57;100394.84;;;21.67;25.92
59272;BME280;45043;51.068;7.026;2023-06-14T11:32:59;100391.88;;;21.58;25.58
59272;BME280;45043;51.068;7.026;2023-06-14T11:36:04;100383.22;;;21.61;25.19
59272;BME280;45043;51.068;7.026;2023-06-14T11:39:11;100389.72;;;21.60;25.59
59272;BME280;45043;51.068;7.026;2023-06-14T11:42:17;100390.78;;;21.64;24.82
59272;BME280;45043;51.068;7.026;2023-06-14T11:45:18;100392.41;;;21.65;24.93
59272;BME280;45043;51.068;7.026;2023-06-14T11:48:18;100384.00;;;21.72;24.97
59272;BME280;45043;51.068;7.026;2023-06-14T11:51:23;100384.25;;;21.81;24.56
59272;BME280;45043;51.068;7.026;2023-06-14T11:54:23;100382.66;;;21.85;24.55
59272;BME280;45043;51.068;7.026;2023-06-14T11:57:24;100383.19;;;21.87;24.69
59272;BME280;45043;51.068;7.026;2023-06-14T12:00:25;100378.81;;;22.01;24.35
59272;BME280;45043;51.068;7.026;2023-06-14T12:03:27;100383.66;;;22.09;24.23
59272;BME280;45043;51.068;7.026;2023-06-14T12:06:30;100371.19;;;22.23;23.55
59272;BME280;45043;51.068;7.026;2023-06-14T12:09:33;100368.19;;;22.25;23.61
59272;BME280;45043;51.068;7.026;2023-06-14T12:12:38;100377.69;;;22.17;23.88
59272;BME280;45043;51.068;7.026;2023-06-14T12:15:39;100370.09;;;22.30;24.01
59272;BME280;45043;51.068;7.026;2023-06-14T12:18:40;100374.38;;;22.36;23.09
59272;BME280;45043;51.068;7.026;2023-06-14T12:21:42;100372.41;;;22.52;22.60
59272;BME280;45043;51.068;7.026;2023-06-14T12:24:44;100386.47;;;22.54;21.89
59272;BME280;45043;51.068;7.026;2023-06-14T12:27:46;100383.00;;;22.48;21.56
59272;BME280;45043;51.068;7.026;2023-06-14T12:30:47;100380.28;;;22.43;20.61
59272;BME280;45043;51.068;7.026;2023-06-14T12:33:48;100378.13;;;22.45;21.44
59272;BME280;45043;51.068;7.026;2023-06-14T12:36:51;100379.44;;;22.53;21.54
59272;BME280;45043;51.068;7.026;2023-06-14T12:39:51;100374.22;;;22.66;21.92
59272;BME280;45043;51.068;7.026;2023-06-14T12:42:52;100378.91;;;23.00;21.76
59272;BME280;45043;51.068;7.026;2023-06-14T12:45:52;100378.22;;;23.18;21.62
59272;BME280;45043;51.068;7.026;2023-06-14T12:48:52;100368.03;;;23.39;21.03
59272;BME280;45043;51.068;7.026;2023-06-14T12:51:53;100380.00;;;23.62;21.17
59272;BME280;45043;51.068;7.026;2023-06-14T12:54:53;100379.28;;;23.81;21.55
59272;BME280;45043;51.068;7.026;2023-06-14T12:57:54;100376.34;;;23.77;21.85
59272;BME280;45043;51.068;7.026;2023-06-14T13:00:54;100375.91;;;23.94;21.49
59272;BME280;45043;51.068;7.026;2023-06-14T13:03:54;100371.88;;;24.15;21.24
59272;BME280;45043;51.068;7.026;2023-06-14T13:06:55;100382.00;;;24.29;21.13
59272;BME280;45043;51.068;7.026;2023-06-14T13:09:55;100384.81;;;24.24;21.48
59272;BME280;45043;51.068;7.026;2023-06-14T13:12:56;100383.00;;;24.14;20.81
59272;BME280;45043;51.068;7.026;2023-06-14T13:15:58;100386.94;;;24.27;21.48
59272;BME280;45043;51.068;7.026;2023-06-14T13:18:58;100385.13;;;24.41;21.79
59272;BME280;45043;51.068;7.026;2023-06-14T13:21:59;100389.06;;;24.73;21.31
59272;BME280;45043;51.068;7.026;2023-06-14T13:24:59;100380.78;;;24.83;20.40
59272;BME280;45043;51.068;7.026;2023-06-14T13:28:00;100388.81;;;24.50;20.72
59272;BME280;45043;51.068;7.026;2023-06-14T13:31:00;100391.38;;;24.41;20.51
59272;BME280;45043;51.068;7.026;2023-06-14T13:34:01;100388.91;;;24.64;21.06
59272;BME280;45043;51.068;7.026;2023-06-14T13:37:01;100378.56;;;24.85;20.11
59272;BME280;45043;51.068;7.026;2023-06-14T13:40:02;100379.06;;;25.06;20.49
59272;BME280;45043;51.068;7.026;2023-06-14T13:43:03;100386.03;;;25.31;19.96
59272;BME280;45043;51.068;7.026;2023-06-14T13:46:03;100387.28;;;25.52;20.56
59272;BME280;45043;51.068;7.026;2023-06-14T13:49:04;100394.75;;;25.60;20.05
59272;BME280;45043;51.068;7.026;2023-06-14T13:52:06;100395.16;;;25.68;19.21
59272;BME280;45043;51.068;7.026;2023-06-14T13:55:06;100393.94;;;25.74;19.62
59272;BME280;45043;51.068;7.026;2023-06-14T13:58:07;100391.53;;;25.72;18.86
59272;BME280;45043;51.068;7.026;2023-06-14T14:01:08;100386.50;;;25.66;18.80
59272;BME280;45043;51.068;7.026;2023-06-14T14:04:09;100390.44;;;25.73;18.78
59272;BME280;45043;51.068;7.026;2023-06-14T14:07:13;100386.94;;;25.87;18.59
59272;BME280;45043;51.068;7.026;2023-06-14T14:10:15;100377.16;;;26.13;19.19
59272;BME280;45043;51.068;7.026;2023-06-14T14:13:15;100387.16;;;26.31;17.98
59272;BME280;45043;51.068;7.026;2023-06-14T14:16:16;100388.69;;;26.38;18.07
59272;BME280;45043;51.068;7.026;2023-06-14T14:19:17;100385.97;;;26.38;18.90
59272;BME280;45043;51.068;7.026;2023-06-14T14:22:19;100384.22;;;26.28;18.63
59272;BME280;45043;51.068;7.026;2023-06-14T14:25:19;100386.03;;;26.32;18.72
59272;BME280;45043;51.068;7.026;2023-06-14T14:28:19;100369.41;;;26.34;18.54
59272;BME280;45043;51.068;7.026;2023-06-14T14:31:20;100377.66;;;26.43;18.59
59272;BME280;45043;51.068;7.026;2023-06-14T14:34:21;100379.41;;;26.75;18.00
59272;BME280;45043;51.068;7.026;2023-06-14T14:37:21;100384.41;;;26.95;17.52
59272;BME280;45043;51.068;7.026;2023-06-14T14:40:21;100374.44;;;27.13;17.80
59272;BME280;45043;51.068;7.026;2023-06-14T14:43:22;100386.97;;;27.68;18.04
59272;BME280;45043;51.068;7.026;2023-06-14T14:46:23;100377.66;;;28.09;17.41
59272;BME280;45043;51.068;7.026;2023-06-14T14:49:23;100380.34;;;28.48;17.03
59272;BME280;45043;51.068;7.026;2023-06-14T14:52:24;100384.69;;;28.84;16.92
59272;BME280;45043;51.068;7.026;2023-06-14T14:55:25;100390.31;;;29.14;16.52
59272;BME280;45043;51.068;7.026;2023-06-14T14:58:25;100379.28;;;29.66;15.53
59272;BME280;45043;51.068;7.026;2023-06-14T15:01:25;100396.81;;;30.12;15.02
59272;BME280;45043;51.068;7.026;2023-06-14T15:04:26;100380.69;;;30.10;14.80
59272;BME280;45043;51.068;7.026;2023-06-14T15:07:27;100393.06;;;30.46;14.81
59272;BME280;45043;51.068;7.026;2023-06-14T15:10:28;100395.09;;;30.58;14.76
59272;BME280;45043;51.068;7.026;2023-06-14T15:13:28;100385.81;;;30.71;14.46
59272;BME280;45043;51.068;7.026;2023-06-14T15:16:28;100386.63;;;30.42;15.20
59272;BME280;45043;51.068;7.026;2023-06-14T15:19:29;100382.31;;;30.62;14.74
59272;BME280;45043;51.068;7.026;2023-06-14T15:22:30;100389.00;;;30.73;14.28
59272;BME280;45043;51.068;7.026;2023-06-14T15:25:30;100393.53;;;30.90;14.19
59272;BME280;45043;51.068;7.026;2023-06-14T15:28:32;100390.31;;;30.88;14.07
59272;BME280;45043;51.068;7.026;2023-06-14T15:31:32;100388.72;;;31.08;14.40
59272;BME280;45043;51.068;7.026;2023-06-14T15:34:33;100390.09;;;31.14;14.04
59272;BME280;45043;51.068;7.026;2023-06-14T15:37:33;100399.06;;;31.23;14.48
59272;BME280;45043;51.068;7.026;2023-06-14T15:40:34;100399.78;;;31.32;14.09
59272;BME280;45043;51.068;7.026;2023-06-14T15:43:34;100391.50;;;31.20;14.49
59272;BME280;45043;51.068;7.026;2023-06-14T15:46:35;100391.38;;;30.96;14.46
59272;BME280;45043;51.068;7.026;2023-06-14T15:49:35;100403.50;;;29.94;14.83
59272;BME280;45043;51.068;7.026;2023-06-14T15:52:36;100400.59;;;29.34;15.73
59272;BME280;45043;51.068;7.026;2023-06-14T15:55:36;100403.16;;;29.57;15.43
59272;BME280;45043;51.068;7.026;2023-06-14T15:58:36;100399.69;;;29.77;14.91
59272;BME280;45043;51.068;7.026;2023-06-14T16:01:37;100408.59;;;30.04;14.78
59272;BME280;45043;51.068;7.026;2023-06-14T16:04:37;100391.06;;;29.96;14.62